Terminal Aerodrome Forecast
Issued by NWS Tuscon, AZ

Home | Current Version | Previous Version | Text Only | Print | Product List | Glossary On
Versions: 1 2 3 4 5 6 7 8 9 10 11 12
000
FTUS45 KTWC 230500
TAFTUS
TAF
KTUS 230520Z 2306/2406 09011KT P6SM VCSH SCT110 OVC180
     FM230800 15011KT P6SM FEW090 SCT120 OVC180
     FM231800 13008KT P6SM FEW080 SCT120 BKN200
     FM232100 11013G20KT P6SM VCTS SCT090CB BKN140
     FM240000 13008KT P6SM VCSH SCT100 BKN150
     FM240300 10008KT P6SM SCT100 BKN200=

USA.gov is the U.S. government's official web portal to all federal, state and local government web resources and services.